Time;durP1;ratioP1;P1;durP2;ratioP2;P2;SDS_P1;SDS_P2;PMS_P1;PMS_P2;Temp;Humidity;BMP_temperature;BMP_pressure;BME280_temperature;BME280_humidity;BME280_pressure;Samples;Min_cycle;Max_cycle;Signal;HPM_P1;HPM_P2
2021/01/23 00:01:54;;;;;;;1.23;1.10;;;7.80;65.70;;;;;;6183510;23;20412;-75
2021/01/23 00:04:21;;;;;;;1.03;0.93;;;7.70;65.80;;;;;;6184891;23;20419;-75
2021/01/23 00:06:47;;;;;;;1.80;1.40;;;7.70;66.20;;;;;;6185436;23;20421;-74
2021/01/23 00:09:14;;;;;;;2.20;2.00;;;7.70;66.30;;;;;;6185185;23;20907;-74
2021/01/23 00:11:40;;;;;;;1.50;1.40;;;7.70;66.90;;;;;;6185632;23;20420;-73
2021/01/23 00:14:07;;;;;;;1.20;1.10;;;7.70;67.20;;;;;;6185153;23;20446;-74
2021/01/23 00:16:34;;;;;;;0.93;0.93;;;7.70;66.60;;;;;;6184950;23;20468;-74
2021/01/23 00:19:01;;;;;;;1.27;0.90;;;7.70;66.10;;;;;;6185240;23;20426;-74
2021/01/23 00:21:27;;;;;;;1.23;1.13;;;7.60;66.90;;;;;;6185051;23;20459;-74
2021/01/23 00:23:54;;;;;;;1.20;1.13;;;7.60;67.00;;;;;;6185080;23;20468;-74
2021/01/23 00:26:21;;;;;;;1.40;1.30;;;7.50;67.60;;;;;;6185494;23;20414;-74
2021/01/23 00:28:47;;;;;;;0.93;0.93;;;7.50;68.10;;;;;;6183168;23;20416;-74
2021/01/23 00:31:14;;;;;;;1.50;1.40;;;7.40;68.50;;;;;;6185015;23;20410;-74
2021/01/23 00:33:41;;;;;;;1.63;1.53;;;7.50;69.10;;;;;;6184696;23;20454;-74
2021/01/23 00:36:08;;;;;;;1.60;1.50;;;7.50;69.30;;;;;;6185251;23;20411;-74
2021/01/23 00:38:35;;;;;;;1.90;1.77;;;7.40;69.40;;;;;;6185100;23;20466;-74
2021/01/23 00:41:01;;;;;;;1.70;1.60;;;7.40;69.60;;;;;;6184976;23;20461;-74
2021/01/23 00:43:28;;;;;;;1.87;1.77;;;7.40;69.80;;;;;;6185239;23;20418;-75
2021/01/23 00:45:54;;;;;;;1.57;1.47;;;7.40;70.10;;;;;;6185010;23;20419;-74
2021/01/23 00:48:21;;;;;;;1.90;1.80;;;7.40;70.40;;;;;;6185107;23;20414;-74
2021/01/23 00:50:49;;;;;;;2.30;2.20;;;7.40;70.50;;;;;;6185408;23;20407;-74
2021/01/23 00:53:15;;;;;;;2.40;2.20;;;7.30;70.80;;;;;;6184803;23;20456;-75
2021/01/23 00:55:42;;;;;;;2.70;2.37;;;7.30;71.00;;;;;;6183090;23;20476;-74
2021/01/23 00:58:08;;;;;;;2.60;2.40;;;7.30;70.50;;;;;;6185211;23;20745;-75
2021/01/23 01:00:35;;;;;;;2.40;2.20;;;7.30;70.90;;;;;;6184871;23;20415;-75
2021/01/23 01:03:01;;;;;;;2.40;2.30;;;7.30;71.20;;;;;;6184718;23;20461;-75
2021/01/23 01:05:28;;;;;;;3.20;2.80;;;7.30;70.70;;;;;;6185000;23;20417;-75
2021/01/23 01:07:55;;;;;;;3.10;2.90;;;7.30;70.90;;;;;;6184654;23;20461;-75
2021/01/23 01:10:22;;;;;;;3.00;2.73;;;7.30;70.80;;;;;;6184890;23;20413;-74
2021/01/23 01:12:49;;;;;;;3.60;3.30;;;7.20;70.50;;;;;;6184670;23;20493;-74
2021/01/23 01:15:15;;;;;;;3.87;3.57;;;7.20;70.70;;;;;;6184898;23;20437;-74
2021/01/23 01:17:42;;;;;;;4.50;3.80;;;7.20;71.40;;;;;;6185027;23;20418;-74
2021/01/23 01:20:09;;;;;;;3.70;3.50;;;7.30;71.30;;;;;;6184742;23;20830;-74
2021/01/23 01:22:36;;;;;;;3.67;3.37;;;7.30;71.30;;;;;;6182815;23;20422;-75
2021/01/23 01:25:04;;;;;;;4.27;3.87;;;7.30;71.50;;;;;;6184752;23;20415;-74
2021/01/23 01:27:30;;;;;;;3.77;3.47;;;7.40;70.80;;;;;;6185047;23;20898;-74
2021/01/23 01:29:57;;;;;;;3.67;3.43;;;7.30;70.20;;;;;;6185094;23;20413;-74
2021/01/23 01:32:24;;;;;;;4.60;3.83;;;7.20;70.40;;;;;;6184780;23;20418;-74
2021/01/23 01:34:50;;;;;;;4.77;4.37;;;7.20;70.80;;;;;;6185000;23;20445;-74
2021/01/23 01:37:17;;;;;;;4.23;3.80;;;7.20;71.20;;;;;;6184742;23;20415;-74
2021/01/23 01:39:43;;;;;;;4.13;3.70;;;7.20;71.20;;;;;;6185014;23;20468;-74
2021/01/23 01:42:11;;;;;;;3.87;3.57;;;7.30;71.30;;;;;;6184600;23;20917;-74
2021/01/23 01:44:37;;;;;;;3.97;3.63;;;7.40;71.20;;;;;;6184978;23;20449;-74
2021/01/23 01:47:04;;;;;;;3.23;2.93;;;7.40;71.10;;;;;;6184603;23;20970;-74
2021/01/23 01:49:31;;;;;;;3.40;3.13;;;7.40;70.80;;;;;;6182529;23;20413;-74
2021/01/23 01:51:58;;;;;;;3.80;3.07;;;7.40;70.90;;;;;;6185454;23;20481;-74
2021/01/23 01:54:26;;;;;;;3.03;2.80;;;7.40;70.80;;;;;;6184512;23;20459;-74
2021/01/23 01:56:52;;;;;;;3.10;2.80;;;7.50;70.70;;;;;;6184571;23;20466;-74
2021/01/23 01:59:20;;;;;;;2.93;2.73;;;7.50;70.80;;;;;;6185500;23;20446;-74
2021/01/23 02:01:46;;;;;;;2.33;2.23;;;7.60;70.70;;;;;;6186304;23;20408;-74
2021/01/23 02:04:21;;;;;;;1.87;1.77;;;7.60;70.60;;;;;;6186763;23;20413;-74
2021/01/23 02:07:12;;;;;;;1.60;1.50;;;7.60;70.10;;;;;;6186433;23;20470;-74
2021/01/23 02:10:02;;;;;;;2.17;2.07;;;7.60;69.80;;;;;;6186823;23;20407;-74
2021/01/23 02:12:37;;;;;;;2.13;2.03;;;7.60;69.60;;;;;;6186691;23;20742;-74
2021/01/23 02:15:10;;;;;;;1.60;1.50;;;7.60;69.40;;;;;;6184439;23;20515;-74
2021/01/23 02:17:42;;;;;;;2.07;1.87;;;7.50;69.40;;;;;;6186250;23;20911;-73
2021/01/23 02:20:38;;;;;;;2.10;2.00;;;7.50;69.30;;;;;;6186191;23;20457;-74
2021/01/23 02:23:13;;;;;;;1.90;1.80;;;7.60;69.90;;;;;;6183687;23;20462;-74
2021/01/23 02:25:58;;;;;;;1.33;1.23;;;7.50;69.50;;;;;;6186624;23;20488;-74
2021/01/23 02:28:44;;;;;;;1.90;1.50;;;7.60;69.90;;;;;;6186265;23;20737;-74
2021/01/23 02:31:14;;;;;;;1.87;1.77;;;7.60;69.90;;;;;;6186481;23;20934;-74
2021/01/23 02:33:43;;;;;;;1.30;1.23;;;7.60;69.60;;;;;;6186046;23;20450;-73
2021/01/23 02:36:11;;;;;;;1.70;1.60;;;7.70;69.20;;;;;;6186241;23;20468;-73
2021/01/23 02:38:39;;;;;;;1.73;1.63;;;7.70;69.10;;;;;;6185626;23;20406;-74
2021/01/23 02:41:06;;;;;;;1.57;1.47;;;7.70;69.30;;;;;;6183471;23;20418;-74
2021/01/23 02:43:34;;;;;;;1.40;1.30;;;7.70;69.30;;;;;;6186689;23;20969;-73
2021/01/23 02:46:00;;;;;;;1.93;1.67;;;7.70;69.20;;;;;;6186632;23;20423;-74
2021/01/23 02:48:28;;;;;;;1.20;1.13;;;7.70;69.30;;;;;;6185697;23;20795;-74
2021/01/23 02:51:01;;;;;;;1.30;1.20;;;7.80;69.40;;;;;;6186084;23;20407;-74
2021/01/23 02:53:33;;;;;;;2.10;0.90;;;7.80;69.10;;;;;;6186187;23;20804;-73
2021/01/23 02:56:07;;;;;;;1.47;1.37;;;7.70;67.90;;;;;;6185845;23;20465;-74
2021/01/23 02:58:35;;;;;;;1.53;1.40;;;7.60;68.20;;;;;;6185827;23;20448;-73
2021/01/23 03:01:04;;;;;;;1.40;1.30;;;7.60;68.20;;;;;;6186577;23;20415;-74
2021/01/23 03:03:33;;;;;;;1.30;1.20;;;7.60;68.50;;;;;;6185655;23;20414;-75
2021/01/23 03:06:04;;;;;;;1.40;1.30;;;7.70;68.60;;;;;;6185856;23;20553;-75
2021/01/23 03:08:31;;;;;;;1.40;1.30;;;7.70;68.60;;;;;;6183667;23;20436;-75
2021/01/23 03:10:58;;;;;;;1.73;1.63;;;7.80;68.70;;;;;;6185698;23;20439;-74
2021/01/23 03:13:25;;;;;;;1.23;1.13;;;7.80;68.70;;;;;;6185999;23;20450;-74
2021/01/23 03:15:52;;;;;;;1.40;1.30;;;7.80;68.30;;;;;;6185687;23;20978;-74
2021/01/23 03:18:18;;;;;;;1.37;1.10;;;7.80;68.30;;;;;;6186064;23;20965;-75
2021/01/23 03:20:46;;;;;;;1.70;1.60;;;7.80;68.40;;;;;;6185525;23;20412;-74
2021/01/23 03:23:12;;;;;;;1.43;1.33;;;7.80;68.60;;;;;;6185615;23;20438;-74
2021/01/23 03:25:39;;;;;;;1.20;1.20;;;7.80;68.20;;;;;;6185430;23;20462;-74
2021/01/23 03:28:05;;;;;;;1.37;1.27;;;7.70;68.10;;;;;;6185411;23;20411;-74
2021/01/23 03:30:32;;;;;;;1.50;1.40;;;7.80;68.20;;;;;;6186022;23;20414;-75
2021/01/23 03:32:59;;;;;;;1.70;1.60;;;7.80;68.10;;;;;;6185702;23;20411;-75
2021/01/23 03:35:27;;;;;;;1.80;1.70;;;7.80;68.10;;;;;;6183556;23;20470;-75
2021/01/23 03:37:54;;;;;;;1.30;1.20;;;7.70;67.00;;;;;;6185491;23;20498;-74
2021/01/23 03:40:21;;;;;;;1.20;1.20;;;7.70;67.80;;;;;;6185506;23;20442;-74
2021/01/23 03:42:47;;;;;;;2.07;1.97;;;7.60;68.00;;;;;;6185705;23;20453;-74
2021/01/23 03:45:15;;;;;;;1.53;1.43;;;7.60;68.00;;;;;;6185045;23;20417;-74
2021/01/23 03:47:41;;;;;;;1.80;1.57;;;7.60;67.90;;;;;;6185723;23;20861;-74
2021/01/23 03:50:09;;;;;;;2.80;2.00;;;7.60;68.00;;;;;;6185922;23;20407;-74
2021/01/23 03:52:37;;;;;;;1.83;1.73;;;7.50;67.00;;;;;;6185440;23;20415;-73
2021/01/23 03:55:05;;;;;;;1.63;1.53;;;7.50;67.80;;;;;;6185464;23;20462;-74
2021/01/23 03:57:32;;;;;;;1.63;1.53;;;7.50;68.40;;;;;;6185143;23;20411;-73
2021/01/23 03:59:59;;;;;;;2.57;2.20;;;7.60;68.70;;;;;;6185467;23;20466;-73
2021/01/23 04:02:25;;;;;;;2.50;1.83;;;7.50;68.20;;;;;;6183451;23;20758;-73
2021/01/23 04:04:52;;;;;;;1.50;1.33;;;7.50;67.70;;;;;;6185145;23;20414;-74
2021/01/23 04:07:18;;;;;;;2.43;1.87;;;7.50;68.00;;;;;;6185234;23;20493;-73
2021/01/23 04:09:46;;;;;;;1.53;1.43;;;7.50;68.30;;;;;;6185218;23;20905;-74
2021/01/23 04:12:14;;;;;;;1.50;1.40;;;7.50;68.00;;;;;;6185209;23;20438;-74
2021/01/23 04:14:40;;;;;;;1.53;1.43;;;7.50;67.60;;;;;;6185567;23;20462;-73
2021/01/23 04:17:07;;;;;;;1.37;1.10;;;7.40;67.80;;;;;;6185455;23;20410;-73
2021/01/23 04:19:34;;;;;;;3.03;1.77;;;7.40;67.90;;;;;;6185130;23;20406;-73
2021/01/23 04:22:00;;;;;;;2.80;1.93;;;7.40;68.50;;;;;;6185028;23;20442;-73
2021/01/23 04:24:27;;;;;;;3.07;1.90;;;7.40;68.30;;;;;;6185672;23;20410;-73
2021/01/23 04:26:53;;;;;;;1.60;1.50;;;7.40;68.20;;;;;;6183419;23;20418;-73
2021/01/23 04:29:21;;;;;;;2.10;1.50;;;7.30;68.10;;;;;;6185098;23;20411;-74
2021/01/23 04:31:47;;;;;;;1.80;1.70;;;7.30;68.30;;;;;;6185569;23;20414;-74
2021/01/23 04:34:14;;;;;;;1.60;1.50;;;7.40;68.80;;;;;;6185159;23;20538;-73
2021/01/23 04:36:40;;;;;;;1.83;1.73;;;7.40;68.70;;;;;;6185023;23;20415;-73
2021/01/23 04:39:07;;;;;;;1.87;1.60;;;7.50;68.90;;;;;;6184971;23;20413;-73
2021/01/23 04:41:34;;;;;;;1.77;1.67;;;7.50;68.80;;;;;;6185067;23;20414;-73
2021/01/23 04:44:00;;;;;;;1.73;1.47;;;7.60;68.90;;;;;;6185405;23;20411;-74
2021/01/23 04:46:28;;;;;;;1.63;1.53;;;7.60;68.90;;;;;;6184941;23;20415;-73
2021/01/23 04:48:56;;;;;;;1.63;1.53;;;7.60;68.90;;;;;;6184789;23;20489;-74
2021/01/23 04:51:23;;;;;;;1.20;1.20;;;7.60;68.50;;;;;;6185209;23;20469;-74
2021/01/23 04:53:50;;;;;;;3.17;1.70;;;7.70;68.60;;;;;;6182720;23;20458;-73
2021/01/23 04:56:16;;;;;;;1.53;1.43;;;7.70;68.70;;;;;;6185595;23;20494;-74
2021/01/23 04:58:43;;;;;;;1.60;1.50;;;7.70;68.60;;;;;;6184864;23;20418;-74
2021/01/23 05:01:13;;;;;;;1.60;1.50;;;7.70;68.40;;;;;;6184968;23;20422;-74
2021/01/23 05:03:59;;;;;;;3.13;1.63;;;7.70;68.40;;;;;;6184845;23;20401;-74
2021/01/23 05:06:27;;;;;;;1.80;1.70;;;7.70;68.10;;;;;;6184828;23;20414;-74
2021/01/23 05:08:54;;;;;;;1.37;1.27;;;7.60;68.00;;;;;;6185448;23;20430;-74
2021/01/23 05:11:21;;;;;;;1.30;1.23;;;7.50;68.00;;;;;;6184988;23;20902;-74
2021/01/23 05:14:09;;;;;;;1.70;1.60;;;7.50;68.30;;;;;;6184681;23;20481;-73
2021/01/23 05:16:36;;;;;;;2.33;1.73;;;7.50;68.60;;;;;;6185234;23;20410;-73
2021/01/23 05:19:04;;;;;;;1.53;1.43;;;7.50;68.50;;;;;;6184571;23;20408;-73
2021/01/23 05:21:32;;;;;;;1.93;1.83;;;7.50;68.40;;;;;;6182769;23;20423;-73
2021/01/23 05:24:12;;;;;;;2.10;2.00;;;7.50;68.50;;;;;;6184634;23;20460;-74
2021/01/23 05:26:40;;;;;;;1.70;1.60;;;7.50;68.70;;;;;;6184827;23;20409;-74
2021/01/23 05:29:12;;;;;;;2.30;2.10;;;7.40;68.50;;;;;;6184705;23;20421;-74
2021/01/23 05:31:40;;;;;;;2.57;1.90;;;7.40;68.70;;;;;;6184731;23;20950;-74
2021/01/23 05:34:32;;;;;;;2.30;1.70;;;7.40;69.00;;;;;;6185760;23;20452;-74
2021/01/23 05:36:59;;;;;;;3.30;1.80;;;7.30;69.10;;;;;;6173303;23;20906;-75
2021/01/23 05:39:45;;;;;;;2.40;2.20;;;7.30;69.30;;;;;;6187158;23;20417;-73
2021/01/23 05:42:12;;;;;;;1.63;1.53;;;7.30;69.20;;;;;;6186721;23;20737;-73
2021/01/23 05:44:38;;;;;;;2.10;2.00;;;7.30;69.20;;;;;;6186697;23;20410;-74
2021/01/23 05:47:25;;;;;;;2.70;1.90;;;7.20;69.10;;;;;;6184873;23;20789;-74
2021/01/23 05:49:53;;;;;;;1.93;1.70;;;7.20;69.50;;;;;;6186376;23;20406;-74
2021/01/23 05:52:20;;;;;;;1.70;1.60;;;7.20;69.60;;;;;;6186501;23;20425;-74
2021/01/23 05:54:46;;;;;;;2.43;1.57;;;7.20;69.70;;;;;;6186620;23;20501;-74
2021/01/23 05:57:14;;;;;;;1.93;1.83;;;7.30;69.60;;;;;;6186951;23;20904;-74
2021/01/23 05:59:41;;;;;;;1.70;1.60;;;7.20;69.30;;;;;;6189822;23;20410;-74
2021/01/23 06:02:10;;;;;;;2.43;2.23;;;7.30;69.60;;;;;;6186964;23;20465;-73
2021/01/23 06:04:40;;;;;;;2.40;2.20;;;7.30;69.40;;;;;;6186779;23;20412;-74
2021/01/23 06:07:08;;;;;;;1.70;1.60;;;7.30;69.10;;;;;;6186269;23;21016;-74
2021/01/23 06:09:39;;;;;;;2.83;1.73;;;7.20;69.20;;;;;;6186795;23;20804;-74
2021/01/23 06:12:26;;;;;;;1.87;1.77;;;7.30;69.50;;;;;;6186475;23;20436;-74
2021/01/23 06:14:52;;;;;;;1.90;1.80;;;7.30;69.40;;;;;;6184059;23;20540;-74
2021/01/23 06:17:45;;;;;;;2.60;1.90;;;7.30;69.30;;;;;;6186390;23;20413;-73
2021/01/23 06:20:32;;;;;;;1.23;1.23;;;7.30;69.10;;;;;;6186379;23;20444;-73
2021/01/23 06:22:59;;;;;;;1.97;1.77;;;7.20;69.00;;;;;;6186279;23;20465;-73
2021/01/23 06:25:59;;;;;;;1.77;1.63;;;7.20;69.30;;;;;;6186280;23;20454;-73
2021/01/23 06:28:48;;;;;;;2.57;2.10;;;7.20;69.50;;;;;;6186077;23;20407;-73
2021/01/23 06:31:35;;;;;;;1.93;1.83;;;7.20;69.70;;;;;;6186261;23;20481;-73
2021/01/23 06:34:23;;;;;;;1.80;1.53;;;7.20;69.70;;;;;;6186258;23;20463;-73
2021/01/23 06:36:49;;;;;;;1.60;1.50;;;7.20;69.20;;;;;;6186099;23;20457;-73
2021/01/23 06:39:17;;;;;;;1.70;1.60;;;7.20;69.20;;;;;;6186229;23;20460;-73
2021/01/23 06:41:43;;;;;;;1.67;1.57;;;7.10;68.80;;;;;;6184227;23;20487;-73
2021/01/23 06:44:17;;;;;;;1.90;1.53;;;7.10;69.10;;;;;;6186261;23;20410;-74
2021/01/23 06:46:56;;;;;;;2.47;1.73;;;7.00;68.90;;;;;;6186054;23;21107;-73
2021/01/23 06:49:23;;;;;;;2.30;1.90;;;7.00;69.10;;;;;;6186305;23;20507;-73
2021/01/23 06:51:50;;;;;;;2.30;1.90;;;6.90;69.30;;;;;;6186143;23;20425;-73
2021/01/23 06:54:18;;;;;;;2.27;2.13;;;6.90;69.60;;;;;;6185932;23;20456;-73
2021/01/23 06:56:47;;;;;;;2.83;2.20;;;6.90;69.80;;;;;;6186225;23;20409;-73
2021/01/23 06:59:24;;;;;;;2.57;2.37;;;6.90;70.00;;;;;;6186033;23;20413;-74
2021/01/23 07:02:02;;;;;;;2.83;2.50;;;7.00;70.30;;;;;;6186167;23;20806;-73
2021/01/23 07:04:29;;;;;;;2.70;2.50;;;7.00;70.10;;;;;;6185758;23;20735;-73
2021/01/23 07:06:57;;;;;;;8.03;2.00;;;7.00;70.30;;;;;;6183336;23;20442;-73
2021/01/23 07:09:49;;;;;;;2.27;2.10;;;7.00;70.00;;;;;;6185881;23;20409;-73
2021/01/23 07:12:36;;;;;;;4.10;2.73;;;7.00;69.60;;;;;;6170171;23;20415;-74
2021/01/23 07:15:04;;;;;;;3.37;2.27;;;7.00;69.60;;;;;;6185564;23;20456;-73
2021/01/23 07:17:34;;;;;;;1.87;1.77;;;6.90;69.20;;;;;;6186160;23;20421;-73
2021/01/23 07:20:04;;;;;;;3.23;2.40;;;6.90;69.30;;;;;;6185499;23;20423;-73
2021/01/23 07:22:31;;;;;;;2.03;1.77;;;6.90;69.00;;;;;;6185698;23;20425;-73
2021/01/23 07:24:59;;;;;;;3.20;2.90;;;6.90;68.80;;;;;;6185933;23;20754;-73
2021/01/23 07:27:26;;;;;;;2.23;2.00;;;7.00;69.20;;;;;;6185775;23;20409;-73
2021/01/23 07:29:53;;;;;;;2.43;2.20;;;6.90;68.90;;;;;;6185372;23;20484;-74
2021/01/23 07:32:19;;;;;;;2.70;2.50;;;6.90;69.00;;;;;;6185463;23;20489;-74
2021/01/23 07:34:59;;;;;;;2.80;2.60;;;7.00;68.80;;;;;;6183286;23;20481;-73
2021/01/23 07:37:45;;;;;;;2.50;2.30;;;7.00;68.90;;;;;;6185272;23;20412;-74
2021/01/23 07:40:16;;;;;;;2.93;2.70;;;7.00;69.10;;;;;;6185718;23;20407;-73
2021/01/23 07:42:43;;;;;;;2.67;2.23;;;7.00;69.00;;;;;;6185229;23;20419;-74
2021/01/23 07:45:12;;;;;;;2.83;2.63;;;7.00;68.80;;;;;;6185050;23;20458;-74
2021/01/23 07:47:39;;;;;;;3.00;2.57;;;7.00;68.70;;;;;;6185152;23;20417;-74
2021/01/23 07:50:08;;;;;;;2.93;2.30;;;7.00;68.90;;;;;;6185680;23;20911;-74
2021/01/23 07:52:35;;;;;;;3.70;3.40;;;7.10;68.70;;;;;;6185517;23;20912;-73
2021/01/23 07:55:02;;;;;;;3.00;2.80;;;7.10;68.50;;;;;;6185733;23;20481;-73
2021/01/23 07:57:29;;;;;;;2.83;2.63;;;7.10;68.40;;;;;;6185165;23;20410;-73
2021/01/23 07:59:56;;;;;;;6.63;2.90;;;7.10;68.30;;;;;;6183104;23;20884;-73
2021/01/23 08:02:22;;;;;;;4.50;2.90;;;7.10;68.30;;;;;;6185381;23;20417;-73
2021/01/23 08:04:51;;;;;;;2.90;2.70;;;7.10;68.30;;;;;;6185487;23;20414;-74
2021/01/23 08:07:25;;;;;;;4.07;2.80;;;7.10;68.40;;;;;;6185339;23;20430;-73
2021/01/23 08:10:10;;;;;;;2.80;2.60;;;7.20;68.40;;;;;;6185300;23;20431;-74
2021/01/23 08:12:38;;;;;;;3.10;2.80;;;7.20;68.30;;;;;;6185678;23;20421;-73
2021/01/23 08:15:06;;;;;;;3.77;2.97;;;7.20;68.00;;;;;;6184631;23;21018;-73
2021/01/23 08:17:38;;;;;;;4.47;3.23;;;7.30;68.00;;;;;;6185181;23;20407;-73
2021/01/23 08:20:06;;;;;;;7.40;3.90;;;7.30;68.00;;;;;;6184906;23;20421;-73
2021/01/23 08:22:32;;;;;;;2.50;2.30;;;7.30;68.10;;;;;;6184822;23;20410;-73
2021/01/23 08:24:59;;;;;;;3.80;3.50;;;7.30;67.90;;;;;;6184967;23;20962;-73
2021/01/23 08:27:26;;;;;;;3.23;2.67;;;7.30;68.20;;;;;;6182905;23;20410;-73
2021/01/23 08:29:53;;;;;;;5.63;2.90;;;7.30;68.30;;;;;;6184333;23;20414;-74
2021/01/23 08:32:20;;;;;;;3.00;2.63;;;7.40;68.30;;;;;;6185294;23;20406;-73
2021/01/23 08:34:46;;;;;;;3.40;2.53;;;7.40;68.20;;;;;;6184046;23;20974;-73
2021/01/23 08:37:13;;;;;;;4.00;3.60;;;7.50;67.90;;;;;;6185289;23;20480;-73
2021/01/23 08:39:45;;;;;;;3.97;3.00;;;7.50;68.30;;;;;;6184533;23;20407;-74
2021/01/23 08:42:11;;;;;;;5.50;4.37;;;7.50;68.40;;;;;;6184783;23;20446;-73
2021/01/23 08:44:38;;;;;;;3.97;3.57;;;7.60;68.40;;;;;;6184461;23;20430;-74
2021/01/23 08:47:06;;;;;;;3.50;3.20;;;7.70;68.30;;;;;;6183449;23;20468;-74
2021/01/23 08:49:33;;;;;;;3.33;3.13;;;7.70;67.80;;;;;;6185289;23;20515;-73
2021/01/23 08:52:00;;;;;;;4.93;3.13;;;7.70;67.70;;;;;;6185380;23;20415;-73
2021/01/23 08:54:26;;;;;;;3.73;3.43;;;7.80;67.20;;;;;;6182597;23;20456;-73
2021/01/23 08:56:53;;;;;;;6.87;3.43;;;7.80;67.20;;;;;;6185356;23;20434;-73
2021/01/23 08:59:19;;;;;;;3.93;3.13;;;7.90;67.40;;;;;;6185040;23;20428;-73
2021/01/23 09:01:46;;;;;;;4.00;3.63;;;7.90;66.80;;;;;;6184728;23;20415;-73
2021/01/23 09:04:13;;;;;;;4.43;4.03;;;8.00;66.90;;;;;;6185024;23;20402;-73
2021/01/23 09:06:40;;;;;;;3.60;3.30;;;8.00;66.90;;;;;;6179498;23;20958;-73
2021/01/23 09:09:07;;;;;;;3.30;3.00;;;8.10;66.70;;;;;;6184105;23;20469;-73
2021/01/23 09:11:36;;;;;;;4.93;2.90;;;8.10;66.50;;;;;;6184849;23;20407;-73
2021/01/23 09:14:04;;;;;;;2.93;2.70;;;8.10;66.10;;;;;;6184462;23;20451;-73
2021/01/23 09:16:30;;;;;;;3.20;2.90;;;8.10;66.30;;;;;;6184265;23;20416;-73
2021/01/23 09:18:57;;;;;;;4.20;3.60;;;8.10;65.80;;;;;;6184183;23;20961;-73
2021/01/23 09:21:25;;;;;;;4.03;3.47;;;8.10;66.10;;;;;;6182349;23;20456;-73
2021/01/23 09:23:51;;;;;;;3.07;2.87;;;8.10;65.90;;;;;;6184400;23;20415;-73
2021/01/23 09:26:18;;;;;;;3.00;2.70;;;8.00;66.00;;;;;;6184377;23;20723;-73
2021/01/23 09:28:44;;;;;;;5.00;3.87;;;8.10;66.00;;;;;;6184299;23;20415;-74
2021/01/23 09:31:11;;;;;;;3.50;2.87;;;8.10;66.10;;;;;;6183989;23;20411;-74
2021/01/23 09:33:38;;;;;;;3.00;2.70;;;8.10;66.00;;;;;;6184226;23;20910;-73
2021/01/23 09:36:05;;;;;;;3.63;3.20;;;8.20;65.70;;;;;;6184440;23;20811;-74
2021/01/23 09:38:33;;;;;;;4.03;3.43;;;8.10;64.90;;;;;;6183279;23;20422;-73
2021/01/23 09:40:59;;;;;;;4.17;3.17;;;8.20;65.10;;;;;;6184099;23;20413;-73
2021/01/23 09:43:26;;;;;;;3.23;2.80;;;8.20;64.90;;;;;;6184597;23;20793;-73
2021/01/23 09:45:52;;;;;;;3.50;3.30;;;8.20;65.00;;;;;;6184202;23;20944;-73
2021/01/23 09:48:20;;;;;;;2.83;2.60;;;8.20;64.80;;;;;;6182073;23;20416;-73
2021/01/23 09:50:46;;;;;;;3.23;2.93;;;8.30;64.80;;;;;;6183992;23;20408;-73
2021/01/23 09:53:13;;;;;;;3.90;3.20;;;8.30;64.40;;;;;;6184029;23;20451;-73
2021/01/23 09:55:41;;;;;;;3.40;3.10;;;8.30;64.20;;;;;;6183939;23;20451;-73
2021/01/23 09:58:08;;;;;;;2.67;2.47;;;8.40;64.50;;;;;;6184492;23;20408;-73
2021/01/23 10:00:35;;;;;;;3.80;3.50;;;8.40;64.10;;;;;;6183850;23;20921;-73
2021/01/23 10:03:01;;;;;;;3.07;2.70;;;8.50;63.90;;;;;;6184023;23;20422;-73
2021/01/23 10:05:28;;;;;;;5.97;2.97;;;8.50;63.40;;;;;;6184644;23;20416;-73
2021/01/23 10:07:54;;;;;;;2.97;2.77;;;8.60;63.50;;;;;;6182962;23;20778;-73
2021/01/23 10:10:21;;;;;;;3.30;3.00;;;8.60;63.40;;;;;;6183967;23;20418;-73
2021/01/23 10:12:48;;;;;;;3.47;3.17;;;8.60;63.20;;;;;;6184407;23;20411;-73
2021/01/23 10:15:16;;;;;;;2.40;2.20;;;8.60;62.90;;;;;;6181376;23;20460;-73
2021/01/23 10:17:42;;;;;;;4.20;2.10;;;8.60;63.10;;;;;;6184065;23;20900;-73
2021/01/23 10:20:10;;;;;;;3.17;2.97;;;8.60;63.10;;;;;;6184493;23;20419;-73
2021/01/23 10:22:37;;;;;;;4.43;2.43;;;8.60;63.20;;;;;;6184451;23;20929;-73
2021/01/23 10:25:04;;;;;;;3.57;3.30;;;8.60;63.00;;;;;;6186078;23;20781;-74
2021/01/23 10:27:30;;;;;;;6.50;3.83;;;8.60;63.00;;;;;;6186616;23;20421;-73
2021/01/23 10:29:58;;;;;;;3.37;2.97;;;8.60;63.20;;;;;;6186387;23;20488;-73
2021/01/23 10:32:24;;;;;;;3.17;2.83;;;8.60;63.40;;;;;;6186159;23;20455;-73
2021/01/23 10:34:51;;;;;;;13.63;3.30;;;8.60;63.10;;;;;;6185830;23;20452;-74
2021/01/23 10:37:18;;;;;;;3.53;3.00;;;8.70;62.90;;;;;;6186547;23;20408;-73
2021/01/23 10:39:45;;;;;;;3.03;2.63;;;8.70;62.80;;;;;;6184784;23;20412;-74
2021/01/23 10:42:11;;;;;;;4.43;3.00;;;8.70;62.60;;;;;;6185734;23;20413;-73
2021/01/23 10:44:39;;;;;;;1.93;1.83;;;8.70;62.90;;;;;;6186538;23;20411;-73
2021/01/23 10:47:07;;;;;;;3.23;2.93;;;8.80;63.00;;;;;;6186035;23;20978;-73
2021/01/23 10:49:34;;;;;;;2.70;2.50;;;8.80;62.80;;;;;;6185769;23;20410;-73
2021/01/23 10:52:01;;;;;;;2.73;2.50;;;8.80;62.70;;;;;;6186071;23;20414;-73
2021/01/23 10:54:28;;;;;;;4.53;2.83;;;8.80;62.60;;;;;;6185983;23;20450;-73
2021/01/23 10:56:55;;;;;;;2.47;2.30;;;8.90;62.50;;;;;;6186399;23;20475;-73
2021/01/23 10:59:22;;;;;;;5.60;3.03;;;9.00;62.50;;;;;;6186437;23;20926;-73
2021/01/23 11:01:48;;;;;;;2.87;2.67;;;9.00;61.80;;;;;;6185703;23;20424;-73
2021/01/23 11:04:16;;;;;;;2.30;1.97;;;9.10;61.90;;;;;;6185746;23;20419;-74
2021/01/23 11:06:43;;;;;;;3.00;2.13;;;9.20;61.80;;;;;;6183630;23;20409;-74
2021/01/23 11:09:10;;;;;;;2.87;2.40;;;9.40;61.80;;;;;;6185812;23;20496;-74
2021/01/23 11:11:37;;;;;;;2.67;2.47;;;9.60;61.20;;;;;;6185799;23;20413;-73
2021/01/23 11:14:04;;;;;;;3.37;2.60;;;9.80;61.20;;;;;;6186223;23;20443;-73
2021/01/23 11:16:30;;;;;;;2.80;2.27;;;10.10;59.70;;;;;;6185754;23;20490;-73
2021/01/23 11:18:57;;;;;;;3.40;1.83;;;10.30;59.00;;;;;;6185407;23;20493;-73
2021/01/23 11:21:25;;;;;;;2.70;2.50;;;10.50;58.10;;;;;;6185707;23;20489;-73
2021/01/23 11:23:51;;;;;;;2.53;2.30;;;10.70;57.70;;;;;;6185929;23;20469;-74
2021/01/23 11:26:18;;;;;;;3.10;2.80;;;10.90;56.80;;;;;;6185622;23;20439;-74
2021/01/23 11:28:44;;;;;;;3.60;2.60;;;11.00;56.30;;;;;;6186275;23;20744;-73
2021/01/23 11:31:11;;;;;;;3.17;2.30;;;11.40;56.20;;;;;;6185785;23;20821;-74
2021/01/23 11:33:39;;;;;;;2.50;2.30;;;11.90;55.10;;;;;;6183428;23;20425;-74
2021/01/23 11:36:06;;;;;;;3.77;2.67;;;12.30;54.00;;;;;;6185898;23;20445;-74
2021/01/23 11:38:34;;;;;;;2.40;2.20;;;13.10;53.40;;;;;;6185520;23;20414;-73
2021/01/23 11:41:01;;;;;;;2.77;2.57;;;14.30;51.90;;;;;;6185380;23;20951;-73
2021/01/23 11:43:28;;;;;;;2.33;2.23;;;15.50;48.30;;;;;;6185889;23;20410;-74
2021/01/23 11:45:54;;;;;;;2.37;2.17;;;16.00;46.90;;;;;;6185414;23;20414;-73
2021/01/23 11:48:21;;;;;;;2.20;2.10;;;15.80;45.60;;;;;;6184958;23;20413;-73
2021/01/23 11:50:47;;;;;;;2.30;2.10;;;15.40;45.20;;;;;;6185765;23;20433;-73
2021/01/23 11:53:14;;;;;;;1.87;1.77;;;14.80;46.00;;;;;;6185765;23;20414;-74
2021/01/23 11:55:41;;;;;;;2.20;2.10;;;13.90;47.10;;;;;;6185451;23;20457;-73
2021/01/23 11:58:08;;;;;;;3.83;2.50;;;13.00;48.80;;;;;;6185202;23;20433;-73
2021/01/23 12:00:35;;;;;;;4.53;2.23;;;12.40;50.40;;;;;;6182748;23;20414;-74
2021/01/23 12:03:02;;;;;;;2.83;2.13;;;11.90;51.20;;;;;;6185043;23;20410;-73
2021/01/23 12:05:28;;;;;;;2.80;2.43;;;11.60;51.90;;;;;;6185293;23;20903;-74
2021/01/23 12:07:55;;;;;;;3.50;2.80;;;11.30;52.90;;;;;;6185345;23;20433;-73
2021/01/23 12:10:21;;;;;;;2.40;1.97;;;11.10;53.30;;;;;;6185320;23;20437;-73
2021/01/23 12:12:49;;;;;;;5.40;2.03;;;11.00;54.10;;;;;;6185265;23;20441;-74
2021/01/23 12:15:17;;;;;;;2.27;1.97;;;10.80;54.00;;;;;;6185670;23;20782;-73
2021/01/23 12:17:43;;;;;;;2.13;1.90;;;10.70;54.10;;;;;;6185495;23;20413;-73
2021/01/23 12:20:11;;;;;;;3.80;2.57;;;10.60;54.70;;;;;;6185362;23;20476;-73
2021/01/23 12:22:38;;;;;;;2.43;2.23;;;10.60;55.00;;;;;;6184866;23;20468;-73
2021/01/23 12:25:06;;;;;;;2.13;2.00;;;10.60;55.10;;;;;;6183506;23;20429;-73
2021/01/23 12:27:33;;;;;;;2.13;2.03;;;10.70;54.60;;;;;;6184141;23;21014;-74
2021/01/23 12:30:01;;;;;;;1.80;1.70;;;10.70;54.60;;;;;;6184898;23;20419;-73
2021/01/23 12:32:27;;;;;;;2.30;2.10;;;10.60;54.40;;;;;;6185495;23;20913;-73
2021/01/23 12:34:54;;;;;;;2.00;1.90;;;10.50;54.70;;;;;;6184518;23;20451;-73
2021/01/23 12:37:20;;;;;;;2.90;2.43;;;10.50;55.00;;;;;;6184911;23;20416;-73
2021/01/23 12:39:47;;;;;;;2.07;1.87;;;10.50;54.60;;;;;;6184790;23;20456;-73
2021/01/23 12:42:14;;;;;;;6.93;2.10;;;10.40;54.30;;;;;;6184588;23;20407;-73
2021/01/23 12:44:40;;;;;;;4.97;1.97;;;10.40;54.60;;;;;;6185081;23;20415;-73
2021/01/23 12:47:08;;;;;;;1.90;1.80;;;10.30;54.90;;;;;;6184698;23;20471;-73
2021/01/23 12:49:35;;;;;;;2.30;1.83;;;10.30;55.30;;;;;;6184493;23;20419;-74
2021/01/23 12:52:01;;;;;;;1.93;1.83;;;10.20;55.00;;;;;;6182286;23;20450;-73
2021/01/23 12:54:28;;;;;;;4.40;2.60;;;10.20;55.40;;;;;;6184887;23;20809;-73
2021/01/23 12:56:54;;;;;;;3.83;1.97;;;10.20;55.40;;;;;;6185030;23;20410;-74
2021/01/23 12:59:21;;;;;;;2.40;2.13;;;10.20;55.30;;;;;;6184610;23;20413;-73
2021/01/23 13:01:49;;;;;;;1.90;1.80;;;10.20;55.60;;;;;;6185044;23;20417;-73
2021/01/23 13:04:17;;;;;;;1.73;1.63;;;10.20;55.80;;;;;;6184590;23;20418;-74